createdAt,value
2019-05-01T00:02:07.651Z,59.30
2019-05-01T00:04:51.089Z,63.17
2019-05-01T00:07:35.796Z,64.05
2019-05-01T00:10:05.705Z,60.45
2019-05-01T00:12:34.393Z,62.53
2019-05-01T00:15:04.157Z,58.15
2019-05-01T00:17:32.914Z,58.10
2019-05-01T00:20:01.559Z,59.13
2019-05-01T00:22:30.059Z,60.30
2019-05-01T00:24:58.598Z,62.75
2019-05-01T00:27:27.508Z,62.58
2019-05-01T00:29:56.177Z,61.53
2019-05-01T00:32:24.881Z,62.90
2019-05-01T00:34:53.396Z,62.13
2019-05-01T00:37:21.903Z,60.63
2019-05-01T00:39:50.474Z,62.55
2019-05-01T00:42:18.975Z,61.77
2019-05-01T00:44:47.507Z,62.08
2019-05-01T00:47:16.299Z,62.08
2019-05-01T00:49:44.789Z,61.00
2019-05-01T00:52:13.298Z,63.85
2019-05-01T00:54:43.711Z,56.65
2019-05-01T00:57:31.881Z,59.35
2019-05-01T01:00:15.014Z,63.83
2019-05-01T01:02:46.903Z,61.20
2019-05-01T01:05:15.649Z,63.65
2019-05-01T01:07:44.155Z,66.60
2019-05-01T01:10:12.969Z,62.30
2019-05-01T01:12:41.697Z,62.53
2019-05-01T01:15:10.958Z,65.62
2019-05-01T01:17:39.459Z,67.17
2019-05-01T01:20:08.191Z,68.12
2019-05-01T01:22:36.802Z,65.50
2019-05-01T01:25:06.212Z,67.22
2019-05-01T01:27:34.955Z,77.20
2019-05-01T01:30:05.584Z,68.70
2019-05-01T01:32:34.200Z,72.22
2019-05-01T01:35:03.333Z,85.72
2019-05-01T01:37:31.848Z,81.00
2019-05-01T01:40:00.756Z,86.15
2019-05-01T01:42:30.088Z,78.95
2019-05-01T01:45:12.237Z,79.92
2019-05-01T01:48:00.921Z,84.35
2019-05-01T01:50:29.857Z,75.30
2019-05-01T01:52:58.689Z,80.97
2019-05-01T01:55:28.728Z,79.58
2019-05-01T01:57:57.648Z,78.83
2019-05-01T02:00:32.384Z,76.50
2019-05-01T02:03:03.034Z,78.37
2019-05-01T02:05:34.645Z,76.02
2019-05-01T02:08:03.592Z,77.30
2019-05-01T02:10:42.664Z,81.85
2019-05-01T02:13:03.468Z,73.00
2019-05-01T02:15:32.177Z,82.50
2019-05-01T02:18:01.152Z,86.72
2019-05-01T02:20:29.867Z,88.45
2019-05-01T02:22:58.497Z,80.07
2019-05-01T02:25:28.222Z,88.85
2019-05-01T02:28:32.093Z,83.97
2019-05-01T02:31:28.245Z,93.85
2019-05-01T02:33:50.635Z,91.35
2019-05-01T02:36:22.073Z,91.25
2019-05-01T02:38:53.136Z,88.75
2019-05-01T02:41:26.308Z,92.67
2019-05-01T02:44:00.113Z,93.37
2019-05-01T02:46:31.597Z,92.90
2019-05-01T02:49:08.078Z,98.50
2019-05-01T02:51:39.255Z,107.85
2019-05-01T02:54:09.083Z,97.45
2019-05-01T02:56:52.417Z,100.72
2019-05-01T02:59:23.883Z,95.42
2019-05-01T03:01:53.420Z,92.72
2019-05-01T03:04:22.341Z,87.50
2019-05-01T03:06:51.962Z,93.80
2019-05-01T03:09:21.800Z,83.85
2019-05-01T03:11:52.441Z,88.90
2019-05-01T03:14:24.369Z,85.67
2019-05-01T03:16:57.387Z,82.30
2019-05-01T03:19:50.956Z,98.25
2019-05-01T03:22:31.445Z,80.50
2019-05-01T03:25:00.278Z,81.75
2019-05-01T03:27:28.912Z,105.10
2019-05-01T03:29:57.544Z,101.27
2019-05-01T03:32:26.849Z,86.17
2019-05-01T03:34:55.553Z,90.80
2019-05-01T03:37:24.375Z,95.72
2019-05-01T03:39:53.211Z,91.72
2019-05-01T03:42:21.945Z,110.75
2019-05-01T03:44:50.863Z,103.30
2019-05-01T03:47:19.608Z,103.92
2019-05-01T03:49:48.344Z,96.17
2019-05-01T03:52:17.376Z,92.65
2019-05-01T03:54:46.184Z,114.00
2019-05-01T03:57:15.118Z,115.20
2019-05-01T03:59:44.335Z,130.22
2019-05-01T04:02:33.975Z,117.75
2019-05-01T04:07:25.987Z,131.07
2019-05-01T04:09:54.612Z,115.97
2019-05-01T04:12:23.429Z,130.78
2019-05-01T04:14:52.132Z,140.65
2019-05-01T04:17:31.407Z,127.55
2019-05-01T04:20:00.436Z,135.20
2019-05-01T04:22:29.129Z,147.47
2019-05-01T04:24:57.962Z,168.17
2019-05-01T04:27:32.052Z,136.18
2019-05-01T04:32:51.994Z,121.95
2019-05-01T04:35:28.784Z,134.25
2019-05-01T04:37:58.828Z,130.80
2019-05-01T04:40:27.526Z,138.45
2019-05-01T04:42:56.845Z,113.15
2019-05-01T04:45:26.591Z,118.95
2019-05-01T04:47:55.444Z,118.65
2019-05-01T04:50:24.232Z,141.05
2019-05-01T04:52:53.481Z,109.40
2019-05-01T04:55:23.721Z,120.40
2019-05-01T04:57:52.647Z,118.28
2019-05-01T05:00:21.383Z,131.18
2019-05-01T05:03:04.531Z,126.67
2019-05-01T05:05:27.526Z,131.05
2019-05-01T05:07:56.408Z,124.62
2019-05-01T05:10:25.407Z,124.07
2019-05-01T05:13:01.979Z,156.67
2019-05-01T05:15:47.143Z,129.78
2019-05-01T05:18:15.984Z,198.30
2019-05-01T05:20:44.904Z,129.68
2019-05-01T05:23:14.671Z,111.68
2019-05-01T05:25:44.297Z,133.47
2019-05-01T05:28:13.519Z,117.75
2019-05-01T05:30:43.213Z,119.40
2019-05-01T05:33:18.530Z,101.60
2019-05-01T05:35:47.083Z,100.18
2019-05-01T05:38:24.592Z,84.45
2019-05-01T05:40:53.964Z,85.97
2019-05-01T05:43:23.346Z,97.27
2019-05-01T05:45:54.510Z,97.37
2019-05-01T05:48:23.358Z,91.72
2019-05-01T05:51:09.396Z,88.35
2019-05-01T05:53:42.420Z,92.80
2019-05-01T05:56:17.008Z,101.67
2019-05-01T05:58:52.008Z,114.05
2019-05-01T06:01:52.434Z,98.90
2019-05-01T06:04:31.056Z,84.47
2019-05-01T06:07:31.055Z,96.15
2019-05-01T06:10:11.275Z,88.85
2019-05-01T06:13:02.442Z,86.70
2019-05-01T06:15:50.632Z,79.35
2019-05-01T06:18:24.613Z,93.25
2019-05-01T06:23:52.736Z,80.53
2019-05-01T06:26:24.934Z,81.80
2019-05-01T06:28:56.019Z,78.80
2019-05-01T06:31:25.229Z,91.87
2019-05-01T06:33:54.964Z,83.05
2019-05-01T06:36:24.320Z,95.00
2019-05-01T06:38:54.327Z,106.85
2019-05-01T06:41:28.698Z,122.02
2019-05-01T06:44:13.160Z,88.70
2019-05-01T06:46:50.539Z,80.12
2019-05-01T06:49:51.307Z,81.32
2019-05-01T06:52:24.841Z,85.07
2019-05-01T06:54:54.319Z,85.00
2019-05-01T06:57:25.035Z,82.10
2019-05-01T06:59:55.997Z,86.60
2019-05-01T07:02:29.863Z,89.92
2019-05-01T07:04:59.400Z,84.95
2019-05-01T07:07:28.537Z,87.88
2019-05-01T07:09:57.800Z,80.07
2019-05-01T07:12:30.028Z,84.65
2019-05-01T07:14:59.555Z,71.97
2019-05-01T07:17:28.519Z,59.65
2019-05-01T07:20:19.752Z,67.60
2019-05-01T07:22:48.573Z,72.40
2019-05-01T07:25:18.952Z,71.47
2019-05-01T07:27:47.730Z,79.17
2019-05-01T07:30:36.899Z,83.55
2019-05-01T07:33:05.610Z,67.80
2019-05-01T07:35:36.717Z,59.67
2019-05-01T07:38:05.377Z,56.65
2019-05-01T07:40:34.718Z,54.27
2019-05-01T07:43:12.130Z,69.27
2019-05-01T07:45:46.647Z,65.45
2019-05-01T07:48:19.167Z,64.35
2019-05-01T07:50:48.204Z,62.45
2019-05-01T07:53:16.937Z,65.55
2019-05-01T07:55:48.644Z,64.60
2019-05-01T07:58:18.237Z,57.10
2019-05-01T08:00:57.290Z,67.42
2019-05-01T08:03:27.033Z,56.35
2019-05-01T08:05:55.839Z,63.05
2019-05-01T08:08:24.442Z,62.95
2019-05-01T08:10:52.941Z,64.17
2019-05-01T08:13:21.568Z,66.60
2019-05-01T08:15:50.104Z,65.85
2019-05-01T08:18:24.029Z,68.35
2019-05-01T08:21:01.128Z,73.67
2019-05-01T08:23:29.628Z,78.62
2019-05-01T08:25:58.218Z,70.62
2019-05-01T08:28:52.136Z,68.15
2019-05-01T08:31:30.473Z,67.25
2019-05-01T08:34:04.804Z,72.58
2019-05-01T08:36:33.326Z,66.85
2019-05-01T08:39:04.972Z,64.35
2019-05-01T08:41:33.090Z,64.62
2019-05-01T08:44:01.879Z,64.90
2019-05-01T08:46:51.003Z,67.00
2019-05-01T08:49:41.761Z,62.78
2019-05-01T08:52:12.875Z,63.98
2019-05-01T08:54:39.595Z,56.48
2019-05-01T08:57:08.210Z,55.80
2019-05-01T08:59:36.724Z,68.15
2019-05-01T09:02:09.517Z,58.38
2019-05-01T09:04:35.969Z,61.68
2019-05-01T09:07:04.576Z,61.92
2019-05-01T09:09:33.616Z,64.62
2019-05-01T09:12:02.425Z,60.15
2019-05-01T09:14:35.084Z,60.03
2019-05-01T09:17:01.376Z,57.08
2019-05-01T09:19:29.993Z,60.23
2019-05-01T09:21:58.612Z,66.07
2019-05-01T09:24:29.285Z,59.73
2019-05-01T09:27:11.679Z,53.65
2019-05-01T09:29:46.897Z,56.02
2019-05-01T09:32:18.747Z,59.40
2019-05-01T09:34:47.047Z,55.08
2019-05-01T09:37:15.786Z,51.37
2019-05-01T09:39:47.159Z,58.75
2019-05-01T09:42:22.684Z,55.65
2019-05-01T09:44:45.589Z,57.00
2019-05-01T09:47:14.211Z,48.52
2019-05-01T09:49:42.831Z,56.98
2019-05-01T09:52:37.656Z,57.35
2019-05-01T09:55:23.187Z,60.48
2019-05-01T09:57:49.795Z,88.60
2019-05-01T10:00:26.339Z,59.75
2019-05-01T10:02:54.963Z,54.95
2019-05-01T10:05:29.111Z,63.20
2019-05-01T10:07:54.004Z,60.28
2019-05-01T10:10:24.747Z,53.85
2019-05-01T10:12:52.983Z,56.50
2019-05-01T10:15:21.590Z,56.35
2019-05-01T10:17:50.212Z,58.23
2019-05-01T10:20:18.729Z,58.20
2019-05-01T10:22:47.343Z,65.37
2019-05-01T10:25:15.888Z,61.92
2019-05-01T10:27:52.866Z,59.73
2019-05-01T10:30:31.727Z,61.92
2019-05-01T10:33:06.441Z,59.50
2019-05-01T10:35:44.290Z,56.10
2019-05-01T10:38:12.990Z,56.08
2019-05-01T10:40:41.712Z,60.73
2019-05-01T10:43:10.432Z,56.60
2019-05-01T10:45:38.970Z,58.65
2019-05-01T10:48:07.519Z,57.73
2019-05-01T10:50:36.009Z,58.92
2019-05-01T10:53:04.768Z,60.95
2019-05-01T10:55:33.283Z,61.10
2019-05-01T10:58:03.384Z,62.17
2019-05-01T11:00:33.661Z,61.80
2019-05-01T11:03:02.292Z,58.15
2019-05-01T11:05:30.951Z,63.23
2019-05-01T11:07:59.756Z,61.00
2019-05-01T11:10:28.269Z,65.57
2019-05-01T11:12:56.787Z,65.10
2019-05-01T11:15:25.435Z,62.05
2019-05-01T11:17:54.084Z,61.55
2019-05-01T11:20:22.687Z,63.70
2019-05-01T11:22:52.223Z,68.45
2019-05-01T11:25:21.093Z,63.55
2019-05-01T11:27:49.724Z,68.45
2019-05-01T11:30:18.667Z,66.85
2019-05-01T11:33:13.385Z,70.95
2019-05-01T11:38:48.482Z,66.20
2019-05-01T11:41:21.546Z,66.35
2019-05-01T11:43:50.641Z,69.50
2019-05-01T11:46:19.369Z,75.42
2019-05-01T11:48:48.113Z,74.30
2019-05-01T11:51:16.903Z,71.12
2019-05-01T11:53:45.424Z,74.82
2019-05-01T11:56:14.075Z,72.27
2019-05-01T11:58:43.030Z,79.12
2019-05-01T12:01:13.655Z,81.72
2019-05-01T12:03:42.319Z,76.17
2019-05-01T12:06:22.402Z,102.00
2019-05-01T12:08:41.723Z,82.02
2019-05-01T12:11:11.527Z,85.20
2019-05-01T12:13:43.838Z,84.87
2019-05-01T12:16:44.391Z,90.45
2019-05-01T12:19:16.333Z,84.90
2019-05-01T12:21:46.354Z,87.97
2019-05-01T12:24:16.431Z,85.92
2019-05-01T12:26:48.084Z,87.45
2019-05-01T12:29:18.130Z,83.72
2019-05-01T12:31:48.143Z,79.80
2019-05-01T12:34:17.776Z,80.55
2019-05-01T12:36:48.850Z,76.72
2019-05-01T12:39:17.486Z,71.65
2019-05-01T12:41:52.319Z,67.40
2019-05-01T12:44:20.863Z,63.00
2019-05-01T12:47:09.253Z,64.27
2019-05-01T12:49:37.991Z,64.00
2019-05-01T12:52:10.955Z,70.42
2019-05-01T12:54:54.009Z,73.12
2019-05-01T12:57:22.621Z,65.65
2019-05-01T12:59:51.144Z,68.95
2019-05-01T13:02:19.778Z,70.42
2019-05-01T13:04:48.688Z,75.00
2019-05-01T13:07:17.499Z,66.87
2019-05-01T13:09:46.150Z,70.50
2019-05-01T13:12:15.161Z,61.92
2019-05-01T13:14:43.740Z,67.03
2019-05-01T13:17:12.472Z,65.15
2019-05-01T13:19:41.011Z,66.77
2019-05-01T13:22:09.558Z,57.65
2019-05-01T13:24:48.846Z,64.40
2019-05-01T13:27:24.169Z,62.23
2019-05-01T13:29:58.510Z,58.70
2019-05-01T13:32:55.370Z,57.85
2019-05-01T13:35:23.880Z,61.15
2019-05-01T13:37:52.530Z,60.05
2019-05-01T13:40:21.439Z,62.95
2019-05-01T13:42:49.740Z,57.88
2019-05-01T13:45:18.598Z,55.33
2019-05-01T13:47:47.094Z,58.90
2019-05-01T13:50:15.820Z,60.48
2019-05-01T13:52:44.372Z,59.30
2019-05-01T13:55:13.783Z,56.30
2019-05-01T13:57:42.347Z,55.80
2019-05-01T14:00:11.497Z,56.75
2019-05-01T14:02:40.100Z,52.70
2019-05-01T14:05:09.333Z,57.50
2019-05-01T14:07:37.960Z,56.85
2019-05-01T14:10:06.781Z,52.05
2019-05-01T14:12:35.405Z,53.45
2019-05-01T14:15:04.296Z,51.77
2019-05-01T14:17:32.794Z,52.33
2019-05-01T14:20:11.835Z,49.13
2019-05-01T14:22:53.035Z,53.23
2019-05-01T14:25:21.560Z,52.33
2019-05-01T14:27:50.284Z,55.48
2019-05-01T14:30:18.903Z,50.52
2019-05-01T14:32:47.384Z,55.88
2019-05-01T14:35:16.236Z,59.65
2019-05-01T14:37:44.740Z,62.40
2019-05-01T14:40:13.777Z,63.23
2019-05-01T14:42:42.316Z,68.10
2019-05-01T14:45:11.234Z,66.30
2019-05-01T14:47:39.749Z,66.47
2019-05-01T14:50:08.514Z,66.25
2019-05-01T14:52:37.261Z,66.37
2019-05-01T14:55:06.210Z,67.72
2019-05-01T14:57:34.928Z,73.92
2019-05-01T15:00:04.446Z,71.57
2019-05-01T15:02:32.951Z,71.65
2019-05-01T15:05:01.796Z,70.62
2019-05-01T15:07:42.660Z,70.32
2019-05-01T15:10:00.967Z,70.45
2019-05-01T15:12:29.519Z,73.00
2019-05-01T15:15:14.457Z,72.25
2019-05-01T15:17:46.759Z,69.07
2019-05-01T15:20:15.471Z,64.75
2019-05-01T15:22:44.103Z,61.23
2019-05-01T15:25:12.663Z,59.50
2019-05-01T15:27:41.225Z,57.75
2019-05-01T15:30:13.568Z,60.05
2019-05-01T15:32:42.108Z,59.50
2019-05-01T15:35:10.947Z,59.23
2019-05-01T15:37:39.519Z,59.70
2019-05-01T15:40:15.858Z,59.27
2019-05-01T15:42:49.270Z,59.42
2019-05-01T15:45:17.979Z,57.13
2019-05-01T15:47:46.497Z,52.10
2019-05-01T15:50:15.232Z,50.38
2019-05-01T15:52:43.945Z,52.43
2019-05-01T15:55:12.850Z,52.93
2019-05-01T15:57:41.484Z,58.40
2019-05-01T16:00:14.768Z,63.02
2019-05-01T16:02:43.292Z,65.80
2019-05-01T16:05:11.936Z,68.67
2019-05-01T16:07:40.658Z,64.77
2019-05-01T16:10:12.216Z,59.90
2019-05-01T16:12:57.344Z,55.10
2019-05-01T16:15:28.315Z,53.75
2019-05-01T16:17:56.924Z,50.78
2019-05-01T16:20:25.577Z,52.83
2019-05-01T16:22:54.095Z,53.68
2019-05-01T16:25:22.816Z,53.70
2019-05-01T16:27:51.532Z,54.80
2019-05-01T16:30:23.392Z,59.15
2019-05-01T16:32:51.991Z,71.95
2019-05-01T16:35:20.840Z,63.60
2019-05-01T16:37:49.450Z,57.17
2019-05-01T16:40:37.827Z,56.83
2019-05-01T16:43:09.045Z,56.92
2019-05-01T16:45:37.929Z,57.88
2019-05-01T16:48:06.563Z,57.45
2019-05-01T16:50:35.226Z,59.60
2019-05-01T16:53:03.831Z,57.53
2019-05-01T16:55:32.488Z,65.55
2019-05-01T16:58:01.012Z,60.55
2019-05-01T17:00:53.966Z,59.08
2019-05-01T17:03:26.678Z,61.42
2019-05-01T17:06:13.099Z,59.27
2019-05-01T17:08:52.954Z,64.60
2019-05-01T17:11:27.491Z,60.52
2019-05-01T17:13:56.298Z,59.13
2019-05-01T17:16:25.319Z,62.38
2019-05-01T17:18:53.843Z,63.28
2019-05-01T17:21:22.493Z,64.20
2019-05-01T17:23:51.255Z,59.30
2019-05-01T17:26:20.017Z,68.78
2019-05-01T17:28:49.128Z,63.78
2019-05-01T17:31:17.765Z,65.20
2019-05-01T17:33:46.492Z,60.45
2019-05-01T17:36:15.148Z,63.73
2019-05-01T17:38:49.851Z,65.50
2019-05-01T17:41:14.181Z,65.08
2019-05-01T17:43:44.655Z,64.67
2019-05-01T17:46:13.238Z,69.42
2019-05-01T17:48:41.851Z,64.37
2019-05-01T17:51:10.415Z,65.57
2019-05-01T17:53:38.924Z,65.03
2019-05-01T17:56:09.960Z,66.07
2019-05-01T17:58:38.071Z,71.62
2019-05-01T18:01:20.506Z,67.82
2019-05-01T18:03:56.047Z,65.65
2019-05-01T18:06:27.428Z,73.62
2019-05-01T18:09:02.937Z,83.40
2019-05-01T18:11:26.775Z,76.28
2019-05-01T18:13:55.382Z,70.32
2019-05-01T18:16:24.121Z,68.97
2019-05-01T18:18:52.644Z,60.25
2019-05-01T18:21:21.696Z,67.12
2019-05-01T18:24:08.858Z,67.78
2019-05-01T18:26:55.141Z,69.05
2019-05-01T18:29:30.248Z,67.42
2019-05-01T18:32:02.964Z,74.25
2019-05-01T18:34:29.401Z,71.42
2019-05-01T18:37:04.768Z,72.37
2019-05-01T18:39:35.932Z,77.10
2019-05-01T18:42:07.216Z,71.02
2019-05-01T18:44:36.052Z,78.10
2019-05-01T18:47:04.821Z,77.70
2019-05-01T18:49:33.404Z,70.35
2019-05-01T18:52:02.142Z,80.32
2019-05-01T18:54:35.002Z,77.67
2019-05-01T18:57:01.273Z,78.78
2019-05-01T18:59:30.011Z,74.22
2019-05-01T19:02:01.269Z,75.15
2019-05-01T19:04:29.268Z,71.92
2019-05-01T19:06:57.911Z,70.42
2019-05-01T19:09:30.025Z,77.65
2019-05-01T19:11:57.759Z,75.17
2019-05-01T19:14:28.703Z,78.70
2019-05-01T19:16:58.339Z,73.87
2019-05-01T19:19:26.954Z,81.63
2019-05-01T19:21:55.712Z,84.20
2019-05-01T19:24:24.434Z,85.12
2019-05-01T19:26:53.139Z,89.42
2019-05-01T19:29:21.683Z,78.12
2019-05-01T19:31:50.180Z,81.37
2019-05-01T19:34:18.698Z,84.42
2019-05-01T19:36:47.435Z,81.05
2019-05-01T19:39:16.142Z,87.17
2019-05-01T19:41:49.047Z,87.53
2019-05-01T19:44:18.737Z,84.83
2019-05-01T19:46:45.874Z,90.03
2019-05-01T19:49:14.413Z,91.08
2019-05-01T19:51:43.047Z,88.47
2019-05-01T19:54:11.865Z,86.30
2019-05-01T19:56:40.369Z,90.35
2019-05-01T19:59:09.035Z,83.60
2019-05-01T20:01:38.295Z,90.97
2019-05-01T20:04:08.483Z,94.62
2019-05-01T20:06:40.157Z,89.32
2019-05-01T20:09:08.888Z,94.05
2019-05-01T20:11:37.384Z,96.78
2019-05-01T20:14:06.458Z,92.90
2019-05-01T20:16:35.132Z,101.12
2019-05-01T20:19:03.843Z,87.78
2019-05-01T20:21:32.372Z,93.80
2019-05-01T20:24:04.263Z,99.45
2019-05-01T20:26:32.180Z,98.52
2019-05-01T20:29:02.129Z,92.92
2019-05-01T20:31:32.934Z,94.85
2019-05-01T20:34:01.280Z,83.42
2019-05-01T20:36:29.930Z,88.62
2019-05-01T20:38:58.559Z,92.97
2019-05-01T20:41:27.179Z,82.00
2019-05-01T20:43:55.844Z,86.60
2019-05-01T20:46:26.094Z,83.82
2019-05-01T20:48:55.942Z,88.40
2019-05-01T20:51:25.492Z,86.25
2019-05-01T20:53:54.007Z,81.05
2019-05-01T20:56:28.961Z,81.95
2019-05-01T20:59:02.839Z,81.92
2019-05-01T21:01:29.373Z,83.20
2019-05-01T21:04:11.710Z,87.95
2019-05-01T21:06:43.676Z,90.47
2019-05-01T21:09:21.248Z,86.28
2019-05-01T21:12:04.773Z,90.05
2019-05-01T21:14:23.569Z,86.55
2019-05-01T21:16:52.078Z,82.20
2019-05-01T21:19:20.607Z,82.30
2019-05-01T21:21:49.243Z,77.72
2019-05-01T21:24:17.758Z,71.45
2019-05-01T21:26:46.306Z,72.87
2019-05-01T21:29:15.104Z,74.20
2019-05-01T21:31:44.174Z,70.45
2019-05-01T21:34:14.557Z,69.97
2019-05-01T21:36:47.530Z,65.70
2019-05-01T21:39:14.975Z,69.53
2019-05-01T21:41:44.184Z,70.57
2019-05-01T21:44:13.184Z,72.08
2019-05-01T21:46:43.142Z,67.40
2019-05-01T21:49:12.943Z,64.55
2019-05-01T21:51:45.952Z,63.75
2019-05-01T21:54:16.105Z,65.10
2019-05-01T21:56:42.884Z,64.53
2019-05-01T21:59:11.541Z,64.92
2019-05-01T22:01:40.269Z,69.00
2019-05-01T22:04:08.804Z,69.97
2019-05-01T22:06:37.324Z,61.25
2019-05-01T22:09:10.597Z,64.80
2019-05-01T22:11:43.285Z,68.05
2019-05-01T22:14:16.894Z,64.80
2019-05-01T22:16:45.711Z,71.00
2019-05-01T22:19:19.014Z,72.45
2019-05-01T22:22:10.487Z,67.20
2019-05-01T22:24:59.432Z,63.30
2019-05-01T22:27:34.509Z,69.87
2019-05-01T22:30:12.777Z,60.55
2019-05-01T22:32:45.493Z,67.65
2019-05-01T22:35:19.226Z,65.35
2019-05-01T22:37:47.878Z,69.10
2019-05-01T22:40:20.140Z,64.32
2019-05-01T22:42:48.768Z,66.82
2019-05-01T22:45:19.956Z,67.55
2019-05-01T22:47:50.859Z,64.12
2019-05-01T22:50:19.783Z,69.30
2019-05-01T22:52:48.295Z,59.30
2019-05-01T22:55:20.328Z,65.67
2019-05-01T22:57:47.240Z,65.00
2019-05-01T23:00:31.855Z,64.07
2019-05-01T23:03:05.427Z,70.60
2019-05-01T23:05:32.641Z,61.95
2019-05-01T23:08:01.277Z,69.45
2019-05-01T23:10:31.101Z,66.37
2019-05-01T23:12:59.700Z,87.45
2019-05-01T23:15:29.735Z,71.07
2019-05-01T23:17:58.380Z,71.92
2019-05-01T23:20:27.007Z,70.95
2019-05-01T23:22:55.523Z,73.30
2019-05-01T23:25:24.025Z,72.10
2019-05-01T23:27:52.628Z,66.05
2019-05-01T23:30:22.196Z,66.62
2019-05-01T23:32:50.779Z,69.50
2019-05-01T23:35:19.397Z,68.97
2019-05-01T23:37:48.036Z,65.72
2019-05-01T23:40:17.011Z,68.12
2019-05-01T23:42:52.229Z,70.52
2019-05-01T23:45:16.440Z,59.90
2019-05-01T23:47:44.935Z,60.83
2019-05-01T23:50:13.571Z,68.33
2019-05-01T23:52:42.101Z,69.42
2019-05-01T23:55:10.844Z,62.80
2019-05-01T23:57:39.345Z,71.30
